Time;durP1;ratioP1;P1;durP2;ratioP2;P2;SDS_P1;SDS_P2;PMS_P1;PMS_P2;Temp;Humidity;BMP_temperature;BMP_pressure;BME280_temperature;BME280_humidity;BME280_pressure;Samples;Min_cycle;Max_cycle;Signal;HPM_P1;HPM_P2
2023/03/26 00:01:28;;;;;;;32.38;6.38;;;;;;;7.65;92.42;99309.84;5011924;28;20054;-44
2023/03/26 00:03:56;;;;;;;31.33;6.97;;;;;;;7.65;92.52;99304.34;5012670;28;20127;-43
2023/03/26 00:06:26;;;;;;;23.83;7.18;;;;;;;7.66;92.69;99306.72;5010747;28;20575;-44
2023/03/26 00:08:57;;;;;;;24.70;6.47;;;;;;;7.68;92.71;99306.34;5012453;28;20046;-44
2023/03/26 00:11:26;;;;;;;34.13;6.85;;;;;;;7.69;92.93;99306.00;5012166;28;20054;-45
2023/03/26 00:13:58;;;;;;;32.88;5.93;;;;;;;7.72;93.40;99313.53;4999732;28;20054;-49
2023/03/26 00:16:29;;;;;;;23.63;5.68;;;;;;;7.76;93.68;99306.13;4994583;28;20108;-44
2023/03/26 00:18:57;;;;;;;31.75;6.50;;;;;;;7.81;93.62;99311.34;5012263;28;20046;-46
2023/03/26 00:21:26;;;;;;;31.08;7.88;;;;;;;7.84;94.07;99310.63;5012513;28;20104;-47
2023/03/26 00:23:57;;;;;;;28.58;6.25;;;;;;;7.89;93.93;99304.84;4995038;28;20173;-44
2023/03/26 00:26:26;;;;;;;33.38;6.43;;;;;;;7.94;94.23;99312.81;5011794;28;20053;-44
2023/03/26 00:28:53;;;;;;;31.10;6.00;;;;;;;7.99;94.33;99309.75;5011858;28;20050;-51
2023/03/26 00:31:20;;;;;;;39.40;8.43;;;;;;;8.05;94.09;99312.25;5011803;28;20463;-43
2023/03/26 00:33:47;;;;;;;32.90;7.90;;;;;;;8.09;94.65;99315.88;5011956;28;20048;-48
2023/03/26 00:36:16;;;;;;;40.72;7.53;;;;;;;8.11;94.73;99316.28;5010921;28;20061;-44
2023/03/26 00:38:45;;;;;;;45.60;8.90;;;;;;;8.14;94.95;99316.38;4994859;28;20041;-44
2023/03/26 00:41:21;;;;;;;28.63;6.82;;;;;;;8.14;95.16;99313.63;5011491;28;20050;-44
2023/03/26 00:43:52;;;;;;;43.13;7.72;;;;;;;8.18;95.38;99316.47;4994384;28;20046;-44
2023/03/26 00:46:19;;;;;;;44.88;10.50;;;;;;;8.19;95.31;99321.59;5011696;28;20045;-44
2023/03/26 00:48:46;;;;;;;41.08;7.43;;;;;;;8.21;95.54;99326.72;5011442;28;20392;-44
2023/03/26 00:51:14;;;;;;;49.85;7.75;;;;;;;8.20;95.90;99319.66;5011400;28;20095;-45
2023/03/26 00:53:43;;;;;;;42.95;9.30;;;;;;;8.23;96.04;99313.41;5011381;28;20248;-49
2023/03/26 00:56:10;;;;;;;51.58;8.00;;;;;;;8.23;96.14;99311.44;5017882;28;20567;-49
2023/03/26 00:58:37;;;;;;;52.42;7.85;;;;;;;8.25;96.26;99313.84;5011206;28;20080;-44
2023/03/26 01:01:17;;;;;;;53.88;9.13;;;;;;;8.26;96.41;99313.47;5011120;28;20096;-44
2023/03/26 01:03:45;;;;;;;36.97;6.57;;;;;;;8.28;96.63;99316.69;5011379;28;20038;-46
2023/03/26 01:06:34;;;;;;;40.67;7.53;;;;;;;8.31;96.79;99317.94;5006047;28;20513;-44
2023/03/26 01:09:15;;;;;;;37.95;6.22;;;;;;;8.32;96.86;99317.56;5011184;28;20054;-45
2023/03/26 01:11:43;;;;;;;46.58;6.65;;;;;;;8.34;96.88;99319.97;5010604;28;20077;-44
2023/03/26 01:14:20;;;;;;;42.95;6.20;;;;;;;8.35;97.13;99324.28;5010954;28;20050;-43
2023/03/26 01:16:54;;;;;;;37.25;7.78;;;;;;;8.34;97.33;99317.22;5010776;28;20645;-44
2023/03/26 01:19:32;;;;;;;38.88;6.40;;;;;;;8.34;97.38;99317.97;4993353;28;20069;-45
2023/03/26 01:21:59;;;;;;;42.42;6.25;;;;;;;8.36;97.51;99325.91;5010895;28;20052;-43
2023/03/26 01:24:26;;;;;;;49.38;6.97;;;;;;;8.34;97.66;99319.97;4993538;28;20399;-44
2023/03/26 01:27:16;;;;;;;47.97;7.63;;;;;;;8.35;97.95;99322.34;5010347;28;20515;-48
2023/03/26 01:29:54;;;;;;;41.08;7.32;;;;;;;8.36;97.84;99323.16;4993385;28;20050;-44
2023/03/26 01:32:36;;;;;;;45.10;8.68;;;;;;;8.38;98.05;99329.09;5010649;28;20073;-43
2023/03/26 01:35:41;;;;;;;28.55;5.95;;;;;;;8.37;98.39;99324.72;5009825;28;20056;-43
2023/03/26 01:38:21;;;;;;;32.60;6.30;;;;;;;8.37;98.33;99335.75;4997891;28;20045;-44
2023/03/26 01:41:12;;;;;;;29.85;5.55;;;;;;;8.37;98.37;99333.78;5010419;28;20068;-44
2023/03/26 01:44:01;;;;;;;30.10;5.13;;;;;;;8.37;98.53;99331.03;5010512;28;20042;-44
2023/03/26 01:46:34;;;;;;;31.45;6.20;;;;;;;8.34;98.67;99339.25;5010867;28;20120;-45
2023/03/26 01:49:03;;;;;;;31.40;5.38;;;;;;;8.30;98.62;99341.13;5010156;28;20065;-44
2023/03/26 01:51:34;;;;;;;28.38;4.95;;;;;;;8.25;98.79;99346.91;5010211;28;20044;-43
2023/03/26 01:54:05;;;;;;;37.83;7.90;;;;;;;8.19;98.75;99334.56;4997374;28;20555;-43
2023/03/26 01:56:48;;;;;;;34.33;6.07;;;;;;;8.10;99.12;99343.06;5010121;28;20140;-43
2023/03/26 01:59:21;;;;;;;25.58;6.18;;;;;;;8.04;99.17;99340.97;5010405;28;20042;-44
2023/03/26 02:02:11;;;;;;;30.88;5.07;;;;;;;7.97;99.27;99344.38;5008514;28;20144;-48
2023/03/26 02:05:20;;;;;;;23.10;4.55;;;;;;;7.91;99.20;99338.38;4962932;28;20050;-46
2023/03/26 02:08:00;;;;;;;25.40;5.50;;;;;;;7.85;99.34;99348.06;4927947;28;20153;-46
2023/03/26 02:10:34;;;;;;;24.80;5.85;;;;;;;7.83;99.27;99338.56;4990541;28;20052;-43
2023/03/26 02:13:02;;;;;;;34.38;5.13;;;;;;;7.78;99.21;99336.88;5009953;28;20427;-43
2023/03/26 02:15:29;;;;;;;36.35;6.38;;;;;;;7.75;99.52;99350.59;4992526;28;20044;-44
2023/03/26 02:17:58;;;;;;;33.08;4.80;;;;;;;7.71;99.57;99347.75;5009426;28;20052;-46
2023/03/26 02:20:28;;;;;;;28.25;6.10;;;;;;;7.67;99.72;99346.88;4992464;28;20458;-48
2023/03/26 02:22:56;;;;;;;33.30;5.95;;;;;;;7.63;99.88;99340.47;5008919;28;20046;-43
2023/03/26 02:25:23;;;;;;;31.58;4.93;;;;;;;7.61;99.86;99342.81;5009692;28;20050;-44
2023/03/26 02:27:52;;;;;;;32.53;5.90;;;;;;;7.59;99.95;99338.81;5009835;28;20050;-43
2023/03/26 02:30:25;;;;;;;24.50;5.05;;;;;;;7.56;100.00;99351.34;5009072;28;20049;-43
2023/03/26 02:32:57;;;;;;;27.88;5.82;;;;;;;7.55;100.00;99359.94;5009570;28;20049;-43
2023/03/26 02:35:25;;;;;;;25.77;5.03;;;;;;;7.55;100.00;99348.94;5009362;28;20084;-45
2023/03/26 02:37:52;;;;;;;22.75;5.13;;;;;;;7.53;100.00;99352.06;5008238;28;20673;-44
2023/03/26 02:40:21;;;;;;;23.65;5.07;;;;;;;7.52;100.00;99358.72;5009396;28;20128;-43
2023/03/26 02:42:48;;;;;;;24.40;4.28;;;;;;;7.51;100.00;99362.66;4991681;28;20157;-44
2023/03/26 02:45:15;;;;;;;35.28;5.65;;;;;;;7.52;100.00;99374.47;5009335;28;20543;-47
2023/03/26 02:47:42;;;;;;;21.75;4.28;;;;;;;7.53;100.00;99371.34;5009317;28;20046;-47
2023/03/26 02:50:10;;;;;;;21.05;4.30;;;;;;;7.55;100.00;99377.28;5009196;28;20050;-44
2023/03/26 02:52:37;;;;;;;26.13;6.90;;;;;;;7.59;100.00;99375.44;5009062;28;20077;-43
2023/03/26 02:55:04;;;;;;;34.90;5.15;;;;;;;7.62;100.00;99380.22;5009656;28;20050;-44
2023/03/26 02:57:31;;;;;;;16.70;3.72;;;;;;;7.64;100.00;99380.66;5009077;28;20080;-44
2023/03/26 02:59:58;;;;;;;32.83;5.97;;;;;;;7.67;100.00;99390.97;5008239;28;20065;-44
2023/03/26 03:02:27;;;;;;;38.75;6.63;;;;;;;7.67;100.00;99393.72;5038392;22;20050;-51
2023/03/26 03:05:00;;;;;;;34.53;7.25;;;;;;;7.68;100.00;99402.75;5009117;28;20054;-44
2023/03/26 03:07:27;;;;;;;30.73;7.30;;;;;;;7.68;100.00;99403.56;5009330;28;20570;-44
2023/03/26 03:09:54;;;;;;;39.45;8.25;;;;;;;7.69;100.00;99407.91;5009125;28;20082;-43
2023/03/26 03:12:21;;;;;;;30.05;7.35;;;;;;;7.71;100.00;99410.31;5009623;28;20403;-44
2023/03/26 03:14:48;;;;;;;31.52;6.63;;;;;;;7.73;100.00;99410.75;5008855;28;20096;-43
2023/03/26 03:17:14;;;;;;;34.53;7.25;;;;;;;7.75;100.00;99403.75;4991392;28;20065;-45
2023/03/26 03:19:42;;;;;;;22.45;6.68;;;;;;;7.79;100.00;99414.81;5008642;28;20454;-47
2023/03/26 03:22:09;;;;;;;38.25;7.15;;;;;;;7.79;100.00;99412.88;5008979;28;20049;-43
2023/03/26 03:24:35;;;;;;;47.95;11.95;;;;;;;7.80;100.00;99411.72;5008933;28;20141;-43
2023/03/26 03:27:02;;;;;;;45.08;8.93;;;;;;;7.81;100.00;99418.81;5008792;28;20050;-43
2023/03/26 03:29:29;;;;;;;50.65;9.75;;;;;;;7.82;100.00;99414.91;5009591;28;20046;-43
2023/03/26 03:31:58;;;;;;;34.20;9.05;;;;;;;7.84;100.00;99420.03;4990847;28;20393;-49
2023/03/26 03:34:26;;;;;;;33.92;8.50;;;;;;;7.84;100.00;99422.81;5008851;28;20160;-44
2023/03/26 03:36:52;;;;;;;29.05;7.63;;;;;;;7.82;100.00;99425.94;5012630;28;20062;-49
2023/03/26 03:39:19;;;;;;;35.60;9.65;;;;;;;7.84;100.00;99428.31;5012966;28;20419;-48
2023/03/26 03:41:46;;;;;;;38.20;8.82;;;;;;;7.84;100.00;99429.13;5012814;28;20054;-43
2023/03/26 03:44:12;;;;;;;43.00;10.65;;;;;;;7.84;100.00;99429.13;5012513;28;20058;-43
2023/03/26 03:46:39;;;;;;;39.88;9.57;;;;;;;7.86;100.00;99429.56;4995120;28;20037;-43
2023/03/26 03:49:06;;;;;;;33.03;8.68;;;;;;;7.85;100.00;99429.94;5012562;28;20108;-44
2023/03/26 03:51:34;;;;;;;32.67;9.10;;;;;;;7.86;100.00;99429.56;5012657;28;20088;-43
2023/03/26 03:54:00;;;;;;;48.28;12.73;;;;;;;7.87;100.00;99430.34;5012498;28;20057;-50
2023/03/26 03:56:27;;;;;;;47.85;11.48;;;;;;;7.88;100.00;99440.22;5012349;28;20041;-43
2023/03/26 03:58:57;;;;;;;32.40;9.65;;;;;;;7.88;100.00;99434.72;5012519;28;20046;-43
2023/03/26 04:01:24;;;;;;;32.75;9.68;;;;;;;7.88;100.00;99441.03;5011266;28;20045;-43
2023/03/26 04:03:50;;;;;;;44.53;12.25;;;;;;;7.90;100.00;99446.19;5014508;28;20131;-45
2023/03/26 04:06:17;;;;;;;41.78;7.72;;;;;;;7.92;100.00;99438.34;5012631;28;20056;-48
2023/03/26 04:08:45;;;;;;;30.25;10.20;;;;;;;7.91;100.00;99451.34;5012281;28;20470;-44
2023/03/26 04:11:13;;;;;;;38.22;8.60;;;;;;;7.91;100.00;99448.59;5012467;28;20062;-47
2023/03/26 04:13:39;;;;;;;33.63;6.82;;;;;;;7.92;100.00;99452.94;5012322;28;20045;-44
2023/03/26 04:16:07;;;;;;;36.40;8.82;;;;;;;7.90;100.00;99449.72;5012635;28;20048;-46
2023/03/26 04:18:35;;;;;;;42.65;7.97;;;;;;;7.90;100.00;99455.25;5013277;28;20054;-46
2023/03/26 04:21:04;;;;;;;25.27;7.25;;;;;;;7.91;100.00;99462.38;4994607;28;20046;-44
2023/03/26 04:23:31;;;;;;;33.08;7.32;;;;;;;7.90;100.00;99462.72;5012096;28;20140;-44
2023/03/26 04:26:03;;;;;;;34.70;6.57;;;;;;;7.88;100.00;99471.34;4978364;28;20045;-46
2023/03/26 04:28:41;;;;;;;38.72;8.02;;;;;;;7.91;100.00;99475.34;5012314;28;20046;-44
2023/03/26 04:31:12;;;;;;;28.35;8.55;;;;;;;7.90;100.00;99482.81;5011334;28;20133;-44
2023/03/26 04:33:39;;;;;;;28.50;5.55;;;;;;;7.90;100.00;99476.50;5012278;28;20052;-43
2023/03/26 04:36:08;;;;;;;20.50;5.70;;;;;;;7.91;100.00;99489.13;5014101;28;20045;-45
2023/03/26 04:38:43;;;;;;;45.65;7.70;;;;;;;7.90;100.00;99496.59;5011672;28;20046;-43
2023/03/26 04:41:14;;;;;;;26.58;6.70;;;;;;;7.90;100.00;99499.34;5011414;28;20053;-43
2023/03/26 04:43:49;;;;;;;28.08;5.72;;;;;;;7.92;100.00;99507.22;4994284;28;20056;-44
2023/03/26 04:46:20;;;;;;;28.40;6.90;;;;;;;7.91;100.00;99500.94;5011198;28;20042;-44
2023/03/26 04:48:51;;;;;;;25.40;5.32;;;;;;;7.94;100.00;99515.97;5011436;28;20046;-43
2023/03/26 04:51:23;;;;;;;33.35;7.32;;;;;;;7.94;100.00;99519.50;5011374;28;20403;-43
2023/03/26 04:53:56;;;;;;;34.28;5.45;;;;;;;7.95;100.00;99526.63;5012011;28;20080;-49
2023/03/26 04:56:23;;;;;;;26.67;4.47;;;;;;;7.96;100.00;99536.50;5011219;28;20414;-44
2023/03/26 04:58:50;;;;;;;24.65;5.30;;;;;;;7.96;100.00;99542.00;5010616;28;20523;-44
2023/03/26 05:01:17;;;;;;;29.63;5.07;;;;;;;7.96;100.00;99542.00;5007121;28;20053;-44
2023/03/26 05:03:44;;;;;;;22.45;3.90;;;;;;;7.97;100.00;99543.59;4993969;28;20077;-45
2023/03/26 05:06:12;;;;;;;27.88;5.10;;;;;;;7.99;100.00;99546.00;5011244;28;20053;-50
2023/03/26 05:08:40;;;;;;;30.33;6.43;;;;;;;7.99;100.00;99568.84;5011027;28;20452;-43
2023/03/26 05:11:10;;;;;;;41.40;7.40;;;;;;;7.97;100.00;99564.84;5011511;28;20049;-44
2023/03/26 05:13:37;;;;;;;31.45;6.55;;;;;;;7.96;100.00;99568.75;5010559;28;20483;-43
2023/03/26 05:16:04;;;;;;;32.70;7.25;;;;;;;7.96;100.00;99575.09;5010915;28;20050;-43
2023/03/26 05:18:31;;;;;;;24.48;4.68;;;;;;;7.95;100.00;99576.22;5011330;28;20434;-43
2023/03/26 05:20:57;;;;;;;33.10;5.82;;;;;;;7.94;100.00;99580.13;5010800;28;20057;-44
2023/03/26 05:23:24;;;;;;;32.65;6.43;;;;;;;7.94;100.00;99593.91;5010709;28;20137;-43
2023/03/26 05:25:51;;;;;;;23.80;4.47;;;;;;;7.95;100.00;99603.78;4993086;28;20053;-44
2023/03/26 05:28:23;;;;;;;41.35;7.55;;;;;;;7.96;100.00;99604.59;5011127;28;20042;-45
2023/03/26 05:30:51;;;;;;;;;;;;;;;7.95;100.00;99612.06;5010751;28;20095;-44
2023/03/26 05:33:20;;;;;;;34.17;4.70;;;;;;;7.94;100.00;99615.94;4993013;28;19983;-51
2023/03/26 05:35:58;;;;;;;20.98;4.28;;;;;;;7.92;100.00;99623.78;5010495;28;20177;-44
2023/03/26 05:38:27;;;;;;;29.42;4.97;;;;;;;7.90;100.00;99631.63;5010601;28;20068;-44
2023/03/26 05:41:04;;;;;;;34.25;5.53;;;;;;;7.91;100.00;99638.72;5009880;28;20495;-43
2023/03/26 05:43:30;;;;;;;30.60;4.80;;;;;;;7.91;100.00;99640.69;5011268;28;20034;-43
2023/03/26 05:45:57;;;;;;;27.38;5.28;;;;;;;7.90;100.00;99642.63;5010440;28;20041;-45
2023/03/26 05:48:25;;;;;;;31.63;5.35;;;;;;;7.89;100.00;99657.56;5010634;28;20045;-52
2023/03/26 05:50:54;;;;;;;30.15;5.32;;;;;;;7.87;100.00;99665.38;5010391;28;20038;-43
2023/03/26 05:53:23;;;;;;;30.35;4.82;;;;;;;7.84;100.00;99666.09;5010460;28;20045;-43
2023/03/26 05:55:56;;;;;;;31.80;6.22;;;;;;;7.84;100.00;99670.78;5010365;28;20046;-43
2023/03/26 05:58:28;;;;;;;20.90;4.28;;;;;;;7.83;100.00;99670.00;5009666;28;20440;-44
2023/03/26 06:01:07;;;;;;;22.67;3.90;;;;;;;7.82;100.00;99684.13;5008312;28;20056;-44
2023/03/26 06:03:38;;;;;;;36.05;7.72;;;;;;;7.81;100.00;99694.34;5010079;28;20384;-46
2023/03/26 06:06:07;;;;;;;38.78;7.63;;;;;;;7.81;100.00;99694.34;4992882;28;20061;-48
2023/03/26 06:08:34;;;;;;;39.63;7.30;;;;;;;7.82;100.00;99698.72;5010053;28;20515;-46
2023/03/26 06:11:06;;;;;;;43.20;6.07;;;;;;;7.80;100.00;99705.72;5010032;28;20050;-51
2023/03/26 06:13:33;;;;;;;40.97;5.97;;;;;;;7.77;100.00;99714.69;5009858;28;20046;-43
2023/03/26 06:15:59;;;;;;;27.48;4.63;;;;;;;7.75;100.00;99728.81;5009685;28;20050;-48
2023/03/26 06:18:26;;;;;;;34.28;5.25;;;;;;;7.76;100.00;99730.41;5010781;28;20045;-43
2023/03/26 06:20:53;;;;;;;33.50;8.20;;;;;;;7.75;100.00;99731.59;5009856;28;20129;-49
2023/03/26 06:23:21;;;;;;;30.20;6.80;;;;;;;7.74;100.00;99745.69;4992143;28;20048;-44
2023/03/26 06:25:48;;;;;;;18.25;6.30;;;;;;;7.73;100.00;99744.88;5009616;28;20470;-44
2023/03/26 06:28:15;;;;;;;31.70;9.18;;;;;;;7.73;100.00;99755.91;5009241;28;20072;-44
2023/03/26 06:30:42;;;;;;;27.60;7.15;;;;;;;7.71;100.00;99766.47;4990424;28;20494;-44
2023/03/26 06:33:09;;;;;;;26.83;7.63;;;;;;;7.71;100.00;99757.41;5009563;28;20056;-51
2023/03/26 06:35:36;;;;;;;24.10;6.25;;;;;;;7.71;100.00;99772.00;4992736;28;20046;-51
2023/03/26 06:38:03;;;;;;;26.48;7.00;;;;;;;7.73;100.00;99779.94;5009692;28;20038;-44
2023/03/26 06:40:31;;;;;;;21.85;6.05;;;;;;;7.73;100.00;99788.97;5009762;28;20046;-43
2023/03/26 06:42:59;;;;;;;23.83;6.68;;;;;;;7.76;100.00;99795.72;5009021;28;20046;-43
2023/03/26 06:45:36;;;;;;;28.63;6.50;;;;;;;7.77;100.00;99802.84;5009471;28;20046;-46
2023/03/26 06:48:03;;;;;;;23.17;6.05;;;;;;;7.76;100.00;99796.53;5009472;28;20057;-44
2023/03/26 06:50:31;;;;;;;29.50;6.32;;;;;;;7.76;100.00;99796.53;5009527;28;20060;-45
2023/03/26 06:52:58;;;;;;;19.08;5.93;;;;;;;7.77;100.00;99809.19;5003097;28;20048;-43
2023/03/26 06:55:26;;;;;;;24.90;5.25;;;;;;;7.79;100.00;99812.38;5009251;28;20084;-44
2023/03/26 06:57:54;;;;;;;19.58;5.38;;;;;;;7.81;100.00;99810.06;5008809;28;20045;-51
2023/03/26 07:00:21;;;;;;;33.75;7.90;;;;;;;7.82;100.00;99833.72;5007435;28;20078;-45
2023/03/26 07:02:49;;;;;;;24.42;6.30;;;;;;;7.82;100.00;99830.97;5009090;28;20061;-44
2023/03/26 07:05:16;;;;;;;24.33;6.25;;;;;;;7.80;100.00;99838.78;5008838;28;20509;-44
2023/03/26 07:07:47;;;;;;;29.25;7.30;;;;;;;7.80;100.00;99844.31;5009060;28;20522;-44
2023/03/26 07:10:13;;;;;;;16.13;6.00;;;;;;;7.81;100.00;99862.41;5008556;28;20042;-45
2023/03/26 07:12:41;;;;;;;26.17;8.13;;;;;;;7.83;100.00;99853.81;5008980;28;20052;-43
2023/03/26 07:15:09;;;;;;;22.52;6.55;;;;;;;7.82;100.00;99865.97;5009278;28;20048;-45
2023/03/26 07:17:36;;;;;;;24.25;7.55;;;;;;;7.83;100.00;99873.91;4991597;28;20058;-49
2023/03/26 07:20:05;;;;;;;28.77;6.47;;;;;;;7.84;100.00;99874.69;5008712;28;20127;-48
2023/03/26 07:22:32;;;;;;;16.80;6.72;;;;;;;7.87;100.00;99879.50;5009091;28;20057;-44
2023/03/26 07:25:00;;;;;;;18.77;6.80;;;;;;;7.88;100.00;99897.66;5007036;28;20069;-46
2023/03/26 07:27:57;;;;;;;25.90;8.77;;;;;;;7.89;100.00;99899.25;5008950;28;20057;-46
2023/03/26 07:31:02;;;;;;;16.27;5.75;;;;;;;7.86;100.00;99917.28;5009065;28;20049;-45
2023/03/26 07:33:36;;;;;;;21.63;5.47;;;;;;;7.85;100.00;99915.69;5008873;28;20431;-45
2023/03/26 07:36:32;;;;;;;20.27;5.13;;;;;;;7.88;100.00;99926.03;5008886;28;20467;-50
2023/03/26 07:39:26;;;;;;;15.80;5.25;;;;;;;7.89;100.00;99933.13;4980862;28;20054;-44
2023/03/26 07:41:56;;;;;;;20.13;5.38;;;;;;;7.89;100.00;99943.34;4999406;28;20056;-44
2023/03/26 07:44:56;;;;;;;22.75;5.40;;;;;;;7.86;100.00;99950.34;5007858;28;20372;-44
2023/03/26 07:47:28;;;;;;;17.75;5.32;;;;;;;7.83;100.00;99962.09;4990778;28;20050;-44
2023/03/26 07:49:58;;;;;;;20.67;4.40;;;;;;;7.85;100.00;99959.78;5008388;28;20053;-45
2023/03/26 07:52:26;;;;;;;16.05;4.15;;;;;;;7.88;100.00;99964.63;5008769;28;20049;-46
2023/03/26 07:54:53;;;;;;;16.10;6.43;;;;;;;7.90;100.00;99973.34;5008638;28;20060;-45
2023/03/26 07:57:43;;;;;;;12.40;4.40;;;;;;;7.96;100.00;99971.97;4990854;28;20050;-47
2023/03/26 08:00:23;;;;;;;19.88;5.85;;;;;;;7.98;100.00;99975.16;5009076;28;20065;-44
2023/03/26 08:03:20;;;;;;;9.48;5.40;;;;;;;8.00;100.00;99994.09;4996795;28;20468;-44
2023/03/26 08:06:04;;;;;;;19.42;5.68;;;;;;;7.99;100.00;99992.50;5008408;28;20499;-44
2023/03/26 08:08:52;;;;;;;25.45;5.47;;;;;;;7.97;100.00;100006.63;5008469;28;20046;-51
2023/03/26 08:11:44;;;;;;;17.83;4.30;;;;;;;7.97;100.00;100019.59;5006658;28;20496;-44
2023/03/26 08:14:10;;;;;;;12.82;4.47;;;;;;;7.94;100.00;100023.84;4996344;28;20576;-45
2023/03/26 08:16:59;;;;;;;19.08;5.43;;;;;;;7.94;100.00;100029.34;5008628;28;20052;-44
2023/03/26 08:20:20;;;;;;;12.98;4.78;;;;;;;7.93;100.00;100033.28;5008428;28;20050;-45
2023/03/26 08:22:55;;;;;;;12.32;4.95;;;;;;;7.95;100.00;100036.50;4973305;28;20045;-45
2023/03/26 08:25:51;;;;;;;20.55;7.20;;;;;;;7.95;100.00;100047.50;5011932;28;20048;-44
2023/03/26 08:28:30;;;;;;;18.85;5.70;;;;;;;7.97;100.00;100059.00;5012075;28;20052;-43
2023/03/26 08:30:56;;;;;;;14.73;5.18;;;;;;;7.96;100.00;100068.44;5011970;28;20042;-43
2023/03/26 08:33:26;;;;;;;18.63;4.22;;;;;;;7.90;100.00;100071.75;5011859;28;20057;-44
2023/03/26 08:35:53;;;;;;;20.45;5.45;;;;;;;7.89;100.00;100070.94;5000239;28;20171;-44
2023/03/26 08:38:20;;;;;;;10.57;3.85;;;;;;;7.89;100.00;100081.94;4998883;28;20041;-44
2023/03/26 08:41:11;;;;;;;12.20;3.88;;;;;;;7.84;100.00;100084.13;5009916;28;20399;-45
2023/03/26 08:44:15;;;;;;;12.93;3.25;;;;;;;7.79;100.00;100093.44;5002928;28;20050;-43
2023/03/26 08:47:03;;;;;;;18.80;4.15;;;;;;;7.80;100.00;100108.03;5000953;28;20042;-43
2023/03/26 08:49:39;;;;;;;18.75;4.15;;;;;;;7.82;100.00;100113.97;5011465;28;20042;-44
2023/03/26 08:52:17;;;;;;;12.57;3.72;;;;;;;7.84;100.00;100128.22;5012351;28;20403;-43
2023/03/26 08:54:56;;;;;;;10.02;3.50;;;;;;;7.90;100.00;100124.09;5011453;28;20054;-43
2023/03/26 08:57:47;;;;;;;11.50;3.45;;;;;;;7.99;100.00;100130.34;5011302;28;20080;-44
2023/03/26 09:00:38;;;;;;;7.50;3.10;;;;;;;8.13;100.00;100138.28;5011271;28;20068;-44
2023/03/26 09:03:23;;;;;;;8.75;2.58;;;;;;;8.34;100.00;100145.31;5011322;28;20041;-43
2023/03/26 09:06:07;;;;;;;8.70;3.28;;;;;;;8.47;100.00;100146.13;5011321;28;20041;-45
2023/03/26 09:08:55;;;;;;;12.63;4.10;;;;;;;8.58;100.00;100152.75;5011982;28;20057;-44
2023/03/26 09:11:22;;;;;;;9.90;2.90;;;;;;;8.64;100.00;100145.06;5010141;28;20053;-43
2023/03/26 09:14:30;;;;;;;7.88;2.88;;;;;;;8.62;100.00;100158.41;5010525;28;20060;-43
2023/03/26 09:17:11;;;;;;;10.27;2.72;;;;;;;8.49;100.00;100171.41;4969372;28;20050;-44
2023/03/26 09:19:47;;;;;;;14.20;2.85;;;;;;;8.40;100.00;100178.97;5010922;28;20042;-46
2023/03/26 09:22:51;;;;;;;11.93;4.00;;;;;;;8.36;100.00;100178.06;5010965;28;20115;-43
2023/03/26 09:25:30;;;;;;;24.23;4.65;;;;;;;8.36;100.00;100202.88;5011456;28;20751;-44
2023/03/26 09:28:27;;;;;;;16.83;3.90;;;;;;;8.31;100.00;100208.63;5010751;28;20049;-43
2023/03/26 09:31:14;;;;;;;11.27;3.45;;;;;;;8.31;100.00;100223.22;5010892;28;20046;-44
2023/03/26 09:34:02;;;;;;;21.75;4.03;;;;;;;8.29;100.00;100239.28;4999335;28;20530;-43
2023/03/26 09:36:38;;;;;;;16.95;4.78;;;;;;;8.25;100.00;100232.03;4993450;28;20038;-43
2023/03/26 09:39:36;;;;;;;16.13;4.47;;;;;;;8.28;100.00;100247.94;5010273;28;20050;-43
2023/03/26 09:42:15;;;;;;;22.45;3.72;;;;;;;8.28;100.00;100253.44;4972509;28;20073;-44
2023/03/26 09:45:09;;;;;;;14.18;3.88;;;;;;;8.33;100.00;100247.69;4997508;28;20052;-43
2023/03/26 09:47:51;;;;;;;17.83;3.83;;;;;;;8.34;100.00;100261.13;5010197;28;20111;-43
2023/03/26 09:51:03;;;;;;;15.95;3.83;;;;;;;8.32;100.00;100277.22;5010408;28;20408;-45
2023/03/26 09:54:05;;;;;;;17.20;4.25;;;;;;;8.31;100.00;100289.41;5010419;28;20045;-45
2023/03/26 09:57:01;;;;;;;19.75;5.07;;;;;;;8.30;100.00;100300.78;5003641;28;20056;-43
2023/03/26 09:59:34;;;;;;;15.25;4.10;;;;;;;8.29;100.00;100296.41;4996107;28;20100;-43
2023/03/26 10:02:11;;;;;;;17.42;6.35;;;;;;;8.28;100.00;100319.63;4992293;28;20616;-44
2023/03/26 10:04:58;;;;;;;15.05;3.80;;;;;;;8.31;100.00;100329.97;5010360;28;20411;-44
2023/03/26 10:07:58;;;;;;;20.13;4.22;;;;;;;8.33;100.00;100330.44;5009834;28;20045;-44
2023/03/26 10:10:30;;;;;;;18.30;4.85;;;;;;;8.32;100.00;100343.41;4991352;28;20235;-46
2023/03/26 10:13:31;;;;;;;20.08;4.05;;;;;;;8.36;100.00;100355.41;5001302;28;20384;-43
2023/03/26 10:16:25;;;;;;;10.48;3.72;;;;;;;8.38;100.00;100368.84;5000731;28;20103;-43
2023/03/26 10:19:29;;;;;;;14.05;3.42;;;;;;;8.37;100.00;100361.69;4997227;28;20050;-48
2023/03/26 10:22:11;;;;;;;19.25;3.95;;;;;;;8.34;100.00;100362.41;5009390;28;20518;-43
2023/03/26 10:24:49;;;;;;;16.33;3.80;;;;;;;8.35;100.00;100366.75;5009774;28;20042;-44
2023/03/26 10:27:45;;;;;;;15.43;3.35;;;;;;;8.42;100.00;100369.75;4999652;28;20042;-46
2023/03/26 10:30:17;;;;;;;16.85;3.75;;;;;;;8.50;100.00;100382.66;4920769;28;20050;-47
2023/03/26 10:32:50;;;;;;;14.45;4.68;;;;;;;8.53;100.00;100382.81;5006629;28;20391;-46
2023/03/26 10:35:22;;;;;;;16.25;3.28;;;;;;;8.55;100.00;100407.31;5009643;28;20042;-44
2023/03/26 10:38:09;;;;;;;23.38;5.65;;;;;;;8.54;100.00;100397.41;5009438;28;20050;-44
2023/03/26 10:40:53;;;;;;;23.85;5.05;;;;;;;8.52;100.00;100405.22;5008470;28;20054;-44
2023/03/26 10:43:42;;;;;;;18.67;3.72;;;;;;;8.47;100.00;100417.25;4998371;28;20038;-45
2023/03/26 10:46:24;;;;;;;10.15;2.88;;;;;;;8.40;100.00;100413.44;5009586;28;20054;-45
2023/03/26 10:49:24;;;;;;;19.55;3.50;;;;;;;8.38;100.00;100426.75;5009687;28;20061;-46
2023/03/26 10:51:54;;;;;;;14.73;3.30;;;;;;;8.35;100.00;100430.19;5017377;28;20069;-43
2023/03/26 10:54:31;;;;;;;9.50;2.63;;;;;;;8.33;100.00;100440.78;5008826;28;20096;-43
2023/03/26 10:57:01;;;;;;;13.55;3.53;;;;;;;8.31;100.00;100454.09;5009393;28;20126;-44
2023/03/26 10:59:29;;;;;;;24.48;3.35;;;;;;;8.26;100.00;100449.53;4992065;28;20049;-44
2023/03/26 11:02:18;;;;;;;13.07;2.63;;;;;;;8.22;100.00;100459.66;5006214;28;20116;-48
2023/03/26 11:05:13;;;;;;;22.75;3.05;;;;;;;8.16;100.00;100471.19;5009190;28;20045;-48
2023/03/26 11:07:49;;;;;;;10.27;3.28;;;;;;;8.15;100.00;100477.88;5009531;28;20096;-44
2023/03/26 11:10:26;;;;;;;16.67;3.47;;;;;;;8.14;100.00;100482.56;5008705;28;20064;-45
2023/03/26 11:13:21;;;;;;;12.90;2.67;;;;;;;8.18;100.00;100491.78;5009246;28;20041;-45
2023/03/26 11:16:04;;;;;;;18.77;3.35;;;;;;;8.18;100.00;100499.25;5008780;28;20057;-43
2023/03/26 11:18:34;;;;;;;17.60;3.55;;;;;;;8.17;100.00;100506.72;5008577;28;20041;-43
2023/03/26 11:21:04;;;;;;;8.85;2.55;;;;;;;8.16;99.97;100507.03;5009034;28;20057;-43
2023/03/26 11:24:07;;;;;;;10.70;2.53;;;;;;;8.15;100.00;100516.47;5009468;28;20041;-45
2023/03/26 11:26:47;;;;;;;13.63;3.00;;;;;;;8.17;99.82;100522.47;4991011;28;21163;-44
2023/03/26 11:29:41;;;;;;;12.13;2.63;;;;;;;8.18;99.55;100521.31;5008909;28;20396;-44
2023/03/26 11:32:13;;;;;;;16.98;2.63;;;;;;;8.23;99.60;100527.44;4999443;28;20104;-44
2023/03/26 11:35:26;;;;;;;12.65;3.25;;;;;;;8.34;99.38;100539.72;5008806;28;20132;-43
2023/03/26 11:38:32;;;;;;;15.90;3.70;;;;;;;8.47;99.25;100540.63;5007080;28;20045;-44
2023/03/26 11:41:02;;;;;;;21.35;4.57;;;;;;;8.54;99.09;100538.13;4998490;28;20041;-44
2023/03/26 11:43:34;;;;;;;14.70;2.92;;;;;;;8.57;98.67;100556.78;5006399;28;20144;-43
2023/03/26 11:46:08;;;;;;;12.43;3.38;;;;;;;8.59;98.72;100554.47;5007682;28;20046;-44
2023/03/26 11:48:45;;;;;;;15.30;4.25;;;;;;;8.70;98.67;100558.44;5008471;28;20404;-43
2023/03/26 11:51:24;;;;;;;13.35;2.70;;;;;;;8.88;98.68;100570.94;5008336;28;20034;-46
2023/03/26 11:53:51;;;;;;;16.02;2.30;;;;;;;8.98;98.35;100581.56;5008536;28;20046;-45
2023/03/26 11:56:50;;;;;;;13.43;3.63;;;;;;;9.07;97.85;100582.31;4993043;28;20475;-44
2023/03/26 11:59:35;;;;;;;13.90;3.00;;;;;;;9.10;97.69;100581.66;5013287;28;20060;-44
2023/03/26 12:02:27;;;;;;;18.77;3.13;;;;;;;9.14;97.52;100601.91;5011980;28;20064;-44